Time;durP1;ratioP1;P1;durP2;ratioP2;P2;SDS_P1;SDS_P2;PMS_P1;PMS_P2;Temp;Humidity;BMP_temperature;BMP_pressure;BME280_temperature;BME280_humidity;BME280_pressure;Samples;Min_cycle;Max_cycle;Signal;HPM_P1;HPM_P2
2023/03/16 00:02:16;;;;;;;13.10;3.83;;;6.30;99.90;;;;;;5099690;28;20025;-41
2023/03/16 00:04:41;;;;;;;5.13;2.78;;;6.30;99.90;;;;;;5092826;28;20032;-42
2023/03/16 00:07:10;;;;;;;8.23;3.30;;;6.40;99.90;;;;;;5105207;28;20469;-43
2023/03/16 00:09:39;;;;;;;6.32;3.08;;;6.40;99.90;;;;;;5105709;28;20379;-42
2023/03/16 00:12:07;;;;;;;5.88;3.22;;;6.40;99.90;;;;;;5105393;28;20487;-43
2023/03/16 00:14:34;;;;;;;5.07;3.00;;;6.40;99.90;;;;;;5112007;28;20494;-42
2023/03/16 00:17:00;;;;;;;6.05;3.15;;;6.40;99.90;;;;;;5103247;28;20040;-43
2023/03/16 00:19:26;;;;;;;8.52;3.53;;;6.40;99.90;;;;;;5102078;28;20082;-45
2023/03/16 00:21:52;;;;;;;14.23;4.30;;;6.30;99.90;;;;;;5099569;28;20757;-42
2023/03/16 00:24:19;;;;;;;9.20;4.30;;;6.30;99.90;;;;;;5108782;28;20031;-40
2023/03/16 00:26:46;;;;;;;5.78;3.22;;;6.30;99.90;;;;;;5102867;28;20027;-39
2023/03/16 00:29:12;;;;;;;5.60;3.30;;;6.40;99.90;;;;;;5106974;28;20032;-40
2023/03/16 00:31:38;;;;;;;5.20;3.28;;;6.40;99.90;;;;;;5110255;28;20032;-42
2023/03/16 00:34:04;;;;;;;7.28;3.28;;;6.30;99.90;;;;;;5107837;28;20047;-43
2023/03/16 00:36:32;;;;;;;7.55;3.10;;;6.40;99.90;;;;;;5100963;28;20083;-34
2023/03/16 00:38:58;;;;;;;5.20;3.28;;;6.40;99.90;;;;;;5099030;28;20016;-39
2023/03/16 00:41:24;;;;;;;4.05;3.10;;;6.40;99.90;;;;;;5100262;28;20043;-36
2023/03/16 00:43:50;;;;;;;7.70;3.28;;;6.50;99.90;;;;;;5101224;28;20015;-37
2023/03/16 00:46:17;;;;;;;4.70;3.30;;;6.40;99.90;;;;;;5102755;28;20024;-34
2023/03/16 00:48:44;;;;;;;7.82;3.22;;;6.40;99.90;;;;;;5101901;28;20500;-36
2023/03/16 00:51:13;;;;;;;4.05;3.13;;;6.50;99.90;;;;;;5105438;28;20043;-33
2023/03/16 00:53:40;;;;;;;7.88;3.45;;;6.40;99.90;;;;;;5114286;28;20047;-32
2023/03/16 00:56:07;;;;;;;5.07;3.17;;;6.50;99.90;;;;;;5112897;28;20141;-30
2023/03/16 00:58:34;;;;;;;5.55;3.40;;;6.50;99.90;;;;;;5113208;28;20031;-35
2023/03/16 01:01:20;;;;;;;7.65;3.15;;;6.50;99.90;;;;;;5111470;28;20491;-35
2023/03/16 01:03:46;;;;;;;4.95;2.70;;;6.60;99.90;;;;;;5103793;28;20035;-35
2023/03/16 01:06:15;;;;;;;3.17;2.90;;;6.60;99.90;;;;;;5113791;28;20038;-32
2023/03/16 01:08:43;;;;;;;4.93;2.85;;;6.60;99.90;;;;;;5114797;28;20073;-37
2023/03/16 01:11:17;;;;;;;13.43;3.47;;;6.60;99.90;;;;;;5116313;28;20544;-34
2023/03/16 01:13:45;;;;;;;4.05;2.88;;;6.50;99.90;;;;;;5116182;28;20421;-32
2023/03/16 01:16:11;;;;;;;8.95;2.97;;;6.50;99.90;;;;;;5097431;28;20028;-33
2023/03/16 01:18:37;;;;;;;5.15;3.42;;;6.50;99.90;;;;;;5100052;28;20012;-34
2023/03/16 01:21:12;;;;;;;5.53;2.92;;;6.50;99.90;;;;;;5100452;28;20082;-37
2023/03/16 01:23:39;;;;;;;5.47;3.15;;;6.50;99.90;;;;;;5101019;28;20008;-33
2023/03/16 01:26:05;;;;;;;10.90;2.97;;;6.60;99.90;;;;;;5103987;28;20039;-33
2023/03/16 01:28:33;;;;;;;6.97;3.38;;;6.60;99.90;;;;;;5095630;28;20027;-33
2023/03/16 01:31:02;;;;;;;6.43;3.22;;;6.50;99.90;;;;;;5098093;28;20027;-34
2023/03/16 01:33:28;;;;;;;5.88;2.63;;;6.60;99.90;;;;;;5106457;28;20491;-36
2023/03/16 01:35:58;;;;;;;10.90;3.08;;;6.60;99.90;;;;;;5106697;28;20106;-34
2023/03/16 01:38:24;;;;;;;5.35;3.47;;;6.60;99.90;;;;;;5096250;28;20059;-33
2023/03/16 01:40:52;;;;;;;6.80;2.90;;;6.50;99.90;;;;;;5095555;28;20048;-32
2023/03/16 01:43:20;;;;;;;6.85;3.13;;;6.50;99.90;;;;;;5113160;28;20034;-36
2023/03/16 01:46:17;;;;;;;4.30;3.30;;;6.50;99.90;;;;;;5100245;28;20019;-36
2023/03/16 01:49:13;;;;;;;10.15;3.00;;;6.50;99.90;;;;;;5094055;28;20071;-34
2023/03/16 01:51:42;;;;;;;8.20;3.65;;;6.50;99.90;;;;;;5115842;28;20030;-31
2023/03/16 01:54:27;;;;;;;4.30;3.17;;;6.50;99.90;;;;;;5113342;28;20040;-38
2023/03/16 01:56:59;;;;;;;12.95;3.65;;;6.50;99.90;;;;;;5107388;28;20035;-36
2023/03/16 01:59:35;;;;;;;4.03;2.83;;;6.60;99.90;;;;;;5115248;28;20495;-48
2023/03/16 02:02:01;;;;;;;5.68;3.40;;;6.60;99.90;;;;;;5102492;28;20076;-45
2023/03/16 02:04:42;;;;;;;4.38;2.90;;;6.50;99.90;;;;;;5105847;28;20024;-47
2023/03/16 02:07:08;;;;;;;8.25;2.75;;;6.60;99.90;;;;;;5104375;28;20032;-48
2023/03/16 02:09:45;;;;;;;4.32;3.17;;;6.50;99.90;;;;;;5095023;28;20053;-49
2023/03/16 02:12:16;;;;;;;7.38;3.05;;;6.60;99.90;;;;;;5094791;28;20429;-49
2023/03/16 02:14:44;;;;;;;12.52;3.05;;;6.60;99.90;;;;;;5094721;28;20031;-42
2023/03/16 02:17:11;;;;;;;8.88;3.67;;;6.50;99.90;;;;;;5094201;28;20066;-43
2023/03/16 02:19:48;;;;;;;3.63;3.25;;;6.60;99.90;;;;;;5094532;28;20020;-42
2023/03/16 02:22:14;;;;;;;9.73;3.13;;;6.60;99.90;;;;;;5107281;28;20024;-46
2023/03/16 02:24:40;;;;;;;6.07;3.67;;;6.60;99.90;;;;;;5112233;28;20011;-45
2023/03/16 02:27:22;;;;;;;5.28;3.13;;;6.60;99.90;;;;;;5094474;28;20028;-40
2023/03/16 02:30:15;;;;;;;4.97;3.03;;;6.50;99.90;;;;;;5094426;28;20031;-46
2023/03/16 02:32:41;;;;;;;4.15;3.33;;;6.60;99.90;;;;;;5109444;28;20554;-43
2023/03/16 02:35:08;;;;;;;9.65;3.08;;;6.60;99.90;;;;;;5114981;28;20024;-42
2023/03/16 02:37:33;;;;;;;6.10;3.10;;;6.50;99.90;;;;;;5108358;27;20123;-41
2023/03/16 02:40:16;;;;;;;5.97;3.20;;;6.50;99.90;;;;;;5103554;28;20099;-45
2023/03/16 02:42:41;;;;;;;5.90;3.15;;;6.60;99.90;;;;;;5094205;28;20115;-44
2023/03/16 02:45:09;;;;;;;7.32;3.17;;;6.60;99.90;;;;;;5094086;28;20070;-49
2023/03/16 02:47:39;;;;;;;8.18;3.55;;;6.60;99.90;;;;;;5093614;28;20388;-48
2023/03/16 02:50:05;;;;;;;5.30;3.22;;;6.60;99.90;;;;;;5093994;28;20031;-40
2023/03/16 02:52:35;;;;;;;8.82;2.80;;;6.60;99.90;;;;;;5094173;28;20400;-39
2023/03/16 02:55:02;;;;;;;7.03;3.15;;;6.60;99.90;;;;;;5093870;28;20032;-34
2023/03/16 02:57:28;;;;;;;3.58;2.75;;;6.60;99.90;;;;;;5100058;28;20028;-33
2023/03/16 02:59:54;;;;;;;6.13;3.00;;;6.60;99.90;;;;;;5100936;28;20016;-36
2023/03/16 03:02:19;;;;;;;6.38;2.63;;;6.60;99.90;;;;;;5098790;28;20024;-34
2023/03/16 03:04:45;;;;;;;4.30;2.67;;;6.60;99.90;;;;;;5093676;28;20046;-35
2023/03/16 03:07:13;;;;;;;9.82;3.10;;;6.60;99.90;;;;;;5104591;28;20415;-42
2023/03/16 03:09:41;;;;;;;4.65;3.05;;;6.60;99.90;;;;;;5113956;28;20024;-39
2023/03/16 03:12:10;;;;;;;5.35;3.70;;;6.60;99.90;;;;;;5113891;28;20032;-41
2023/03/16 03:14:39;;;;;;;4.18;3.20;;;6.60;99.90;;;;;;5113110;28;20028;-41
2023/03/16 03:17:06;;;;;;;6.20;3.38;;;6.60;99.90;;;;;;5098693;28;20039;-42
2023/03/16 03:19:33;;;;;;;4.68;2.97;;;6.60;99.90;;;;;;5093532;28;20506;-43
2023/03/16 03:22:03;;;;;;;5.03;3.00;;;6.60;99.90;;;;;;5092170;28;20032;-44
2023/03/16 03:24:30;;;;;;;3.38;2.78;;;6.60;99.90;;;;;;5093672;28;20032;-44
2023/03/16 03:26:56;;;;;;;3.40;3.00;;;6.50;99.90;;;;;;5110840;28;20045;-47
2023/03/16 03:29:21;;;;;;;3.97;3.10;;;6.60;99.90;;;;;;5103705;27;20039;-41
2023/03/16 03:31:47;;;;;;;7.75;3.47;;;6.50;99.90;;;;;;5097016;28;20024;-41
2023/03/16 03:34:13;;;;;;;5.43;3.00;;;6.50;99.90;;;;;;5095840;28;20053;-43
2023/03/16 03:36:40;;;;;;;4.47;2.78;;;6.50;99.90;;;;;;5105427;28;20119;-44
2023/03/16 03:39:05;;;;;;;4.10;2.72;;;6.50;99.90;;;;;;5106262;28;20084;-41
2023/03/16 03:41:32;;;;;;;5.63;3.03;;;6.40;99.90;;;;;;5101380;28;20035;-42
2023/03/16 03:43:59;;;;;;;4.03;2.97;;;6.40;99.90;;;;;;5101110;28;20028;-44
2023/03/16 03:46:25;;;;;;;5.20;3.50;;;6.40;99.90;;;;;;5102586;28;20097;-41
2023/03/16 03:48:51;;;;;;;4.93;3.20;;;6.40;99.90;;;;;;5093802;28;20165;-36
2023/03/16 03:51:17;;;;;;;5.00;3.58;;;6.40;99.90;;;;;;5093054;28;20048;-38
2023/03/16 03:53:43;;;;;;;4.35;2.83;;;6.40;99.90;;;;;;5101528;28;20446;-35
2023/03/16 03:56:08;;;;;;;6.50;3.47;;;6.40;99.90;;;;;;5095711;28;20541;-34
2023/03/16 03:58:34;;;;;;;6.78;2.72;;;6.30;99.90;;;;;;5109543;28;20107;-36
2023/03/16 04:01:00;;;;;;;7.25;3.03;;;6.30;99.90;;;;;;5111541;28;20094;-49
2023/03/16 04:03:26;;;;;;;6.35;3.03;;;6.30;99.90;;;;;;5093238;28;20016;-48
2023/03/16 04:05:51;;;;;;;7.90;3.33;;;6.30;99.90;;;;;;5100589;28;20023;-43
2023/03/16 04:08:17;;;;;;;5.03;2.85;;;6.30;99.90;;;;;;5097839;28;20361;-42
2023/03/16 04:10:43;;;;;;;4.10;3.10;;;6.30;99.90;;;;;;5093115;28;20476;-43
2023/03/16 04:13:09;;;;;;;10.25;3.38;;;6.20;99.90;;;;;;5092049;28;20040;-42
2023/03/16 04:15:37;;;;;;;3.60;3.10;;;6.20;99.90;;;;;;5092688;28;20024;-49
2023/03/16 04:18:03;;;;;;;6.57;2.78;;;6.20;99.90;;;;;;5092533;28;20028;-41
2023/03/16 04:20:29;;;;;;;6.57;3.40;;;6.20;99.90;;;;;;5101215;28;20454;-43
2023/03/16 04:22:57;;;;;;;10.13;3.65;;;6.20;99.90;;;;;;5110690;28;20062;-43
2023/03/16 04:25:29;;;;;;;10.35;3.50;;;6.20;99.90;;;;;;5113123;28;20047;-41
2023/03/16 04:27:54;;;;;;;7.82;3.10;;;6.20;99.90;;;;;;5097158;28;20091;-43
2023/03/16 04:30:22;;;;;;;9.32;3.33;;;6.30;99.90;;;;;;5092953;28;20048;-42
2023/03/16 04:32:48;;;;;;;6.35;3.67;;;6.30;99.90;;;;;;5095865;28;20020;-45
2023/03/16 04:35:14;;;;;;;5.75;3.47;;;6.30;99.90;;;;;;5094898;28;20526;-43
2023/03/16 04:37:40;;;;;;;5.05;2.97;;;6.30;99.90;;;;;;5091817;28;20040;-44
2023/03/16 04:40:15;;;;;;;7.47;3.28;;;6.30;99.90;;;;;;5098588;28;20038;-41
2023/03/16 04:42:44;;;;;;;5.05;2.42;;;6.30;99.90;;;;;;5093263;28;20032;-42
2023/03/16 04:45:11;;;;;;;6.00;2.80;;;6.30;99.90;;;;;;5104447;28;20036;-44
2023/03/16 04:47:37;;;;;;;4.28;2.70;;;6.30;99.90;;;;;;5099489;28;20028;-40
2023/03/16 04:50:04;;;;;;;7.72;2.80;;;6.40;99.90;;;;;;5110285;28;20028;-43
2023/03/16 04:52:31;;;;;;;12.23;3.15;;;6.30;99.90;;;;;;5108546;28;20038;-42
2023/03/16 04:54:56;;;;;;;2.55;2.13;;;6.30;99.90;;;;;;5092859;28;20388;-43
2023/03/16 04:57:22;;;;;;;8.43;2.85;;;6.40;99.90;;;;;;5095548;28;20032;-43
2023/03/16 04:59:49;;;;;;;7.70;3.47;;;6.40;99.90;;;;;;5112593;28;20103;-47
2023/03/16 05:02:16;;;;;;;3.40;2.85;;;6.40;99.90;;;;;;5110734;28;20028;-42
2023/03/16 05:04:41;;;;;;;7.18;3.22;;;6.40;99.90;;;;;;5111693;28;20034;-45
2023/03/16 05:07:07;;;;;;;8.07;3.28;;;6.40;99.90;;;;;;5108469;28;20398;-43
2023/03/16 05:09:33;;;;;;;2.85;2.35;;;6.40;99.90;;;;;;5105505;28;20035;-45
2023/03/16 05:11:58;;;;;;;5.90;2.65;;;6.40;99.90;;;;;;5105531;28;20024;-43
2023/03/16 05:14:24;;;;;;;7.80;2.92;;;6.30;99.90;;;;;;5114853;28;20024;-44
2023/03/16 05:16:51;;;;;;;9.88;3.28;;;6.30;99.90;;;;;;5107431;28;20024;-42
2023/03/16 05:19:16;;;;;;;4.80;3.40;;;6.30;99.90;;;;;;5111895;28;20076;-43
2023/03/16 05:21:42;;;;;;;5.22;2.78;;;6.30;99.90;;;;;;5097719;28;20476;-43
2023/03/16 05:24:08;;;;;;;3.35;2.80;;;6.20;99.90;;;;;;5104046;28;20498;-44
2023/03/16 05:26:34;;;;;;;4.47;2.53;;;6.30;99.90;;;;;;5115040;28;20036;-45
2023/03/16 05:29:00;;;;;;;5.20;2.75;;;6.30;99.90;;;;;;5105179;28;20016;-43
2023/03/16 05:31:26;;;;;;;6.03;3.30;;;6.30;99.90;;;;;;5097035;28;20036;-37
2023/03/16 05:33:52;;;;;;;5.85;3.45;;;6.30;99.90;;;;;;5100844;28;20157;-35
2023/03/16 05:36:18;;;;;;;7.07;3.20;;;6.30;99.90;;;;;;5109637;28;20046;-35
2023/03/16 05:38:44;;;;;;;7.75;2.42;;;6.30;99.90;;;;;;5108199;28;20464;-34
2023/03/16 05:41:10;;;;;;;7.28;3.10;;;6.30;99.90;;;;;;5111344;28;20375;-31
2023/03/16 05:43:36;;;;;;;8.95;2.63;;;6.30;99.90;;;;;;5115797;28;20023;-37
2023/03/16 05:46:02;;;;;;;4.70;2.63;;;6.30;99.90;;;;;;5105860;28;20028;-38
2023/03/16 05:48:28;;;;;;;4.82;2.40;;;6.20;99.90;;;;;;5096129;28;20024;-38
2023/03/16 05:50:54;;;;;;;9.43;3.38;;;6.20;99.90;;;;;;5107661;28;20089;-34
2023/03/16 05:53:20;;;;;;;5.43;2.47;;;6.20;99.90;;;;;;5114124;28;20089;-36
2023/03/16 05:55:51;;;;;;;4.00;2.13;;;6.20;99.90;;;;;;5114378;28;20499;-34
2023/03/16 05:58:17;;;;;;;3.47;2.05;;;6.20;99.90;;;;;;5110973;28;20426;-37
2023/03/16 06:00:42;;;;;;;7.00;2.75;;;6.20;99.90;;;;;;5112043;28;20016;-34
2023/03/16 06:03:08;;;;;;;7.45;2.78;;;6.20;99.90;;;;;;5106401;28;20103;-39
2023/03/16 06:05:34;;;;;;;2.75;2.20;;;6.20;99.90;;;;;;5104684;28;20027;-36
2023/03/16 06:08:00;;;;;;;6.07;2.20;;;6.30;99.90;;;;;;5113407;28;20498;-36
2023/03/16 06:10:26;;;;;;;8.80;3.85;;;6.30;99.90;;;;;;5095520;28;20468;-36
2023/03/16 06:12:52;;;;;;;2.53;2.33;;;6.30;99.90;;;;;;5094715;28;20385;-39
2023/03/16 06:15:17;;;;;;;3.83;2.20;;;6.30;99.90;;;;;;5094651;28;20113;-35
2023/03/16 06:17:43;;;;;;;4.38;2.28;;;6.30;99.90;;;;;;5094634;28;20023;-36
2023/03/16 06:20:12;;;;;;;6.88;2.63;;;6.30;99.90;;;;;;5095114;28;20443;-33
2023/03/16 06:22:40;;;;;;;3.63;2.25;;;6.40;99.90;;;;;;5108513;28;20024;-37
2023/03/16 06:25:06;;;;;;;9.38;2.53;;;6.30;99.90;;;;;;5112902;28;20024;-36
2023/03/16 06:27:31;;;;;;;4.35;2.20;;;6.30;99.90;;;;;;5114848;28;20039;-38
2023/03/16 06:29:57;;;;;;;2.20;1.67;;;6.30;99.90;;;;;;5112948;28;20023;-34
2023/03/16 06:32:23;;;;;;;4.20;2.00;;;6.30;99.90;;;;;;5114031;28;20039;-34
2023/03/16 06:34:49;;;;;;;4.15;1.90;;;6.30;99.90;;;;;;5114127;28;20491;-37
2023/03/16 06:37:14;;;;;;;5.45;1.80;;;6.40;99.90;;;;;;5113474;28;20135;-36
2023/03/16 06:39:40;;;;;;;2.92;1.90;;;6.40;99.90;;;;;;5111034;28;20480;-37
2023/03/16 06:42:06;;;;;;;5.18;2.10;;;6.40;99.90;;;;;;5093901;28;20024;-35
2023/03/16 06:44:31;;;;;;;7.93;2.35;;;6.50;99.90;;;;;;5112824;28;20024;-39
2023/03/16 06:46:57;;;;;;;1.90;1.52;;;6.50;99.90;;;;;;5114467;28;20042;-36
2023/03/16 06:49:23;;;;;;;5.03;1.75;;;6.50;99.90;;;;;;5108189;28;20076;-34
2023/03/16 06:51:48;;;;;;;3.15;2.05;;;6.60;99.90;;;;;;5114339;28;20114;-35
2023/03/16 06:54:14;;;;;;;3.97;1.85;;;6.60;99.90;;;;;;5112107;28;20027;-35
2023/03/16 06:56:40;;;;;;;5.28;1.92;;;6.60;99.90;;;;;;5109005;28;20063;-38
2023/03/16 06:59:06;;;;;;;4.63;2.10;;;6.60;99.90;;;;;;5113179;28;20476;-38
2023/03/16 07:01:32;;;;;;;4.10;2.10;;;6.60;99.90;;;;;;5114115;28;20056;-34
2023/03/16 07:03:57;;;;;;;4.78;1.70;;;6.70;99.90;;;;;;5105098;28;20569;-37
2023/03/16 07:06:23;;;;;;;4.07;2.10;;;6.70;99.90;;;;;;5103544;28;20476;-38
2023/03/16 07:08:49;;;;;;;4.07;2.20;;;6.80;99.90;;;;;;5097365;28;20023;-38
2023/03/16 07:11:15;;;;;;;10.45;2.53;;;6.80;99.90;;;;;;5102952;28;20586;-39
2023/03/16 07:13:40;;;;;;;5.60;2.00;;;6.80;99.90;;;;;;5112079;28;20107;-37
2023/03/16 07:16:07;;;;;;;4.00;1.90;;;6.80;99.90;;;;;;5100764;28;20387;-34
2023/03/16 07:18:32;;;;;;;2.13;1.52;;;6.90;99.90;;;;;;5102397;28;20028;-35
2023/03/16 07:20:58;;;;;;;9.07;1.98;;;6.90;99.90;;;;;;5111166;28;20072;-37
2023/03/16 07:23:25;;;;;;;2.15;1.95;;;6.90;99.90;;;;;;5107916;28;20027;-35
2023/03/16 07:25:51;;;;;;;2.42;1.85;;;6.90;99.90;;;;;;5093293;28;20042;-35
2023/03/16 07:28:20;;;;;;;7.30;1.92;;;6.90;99.90;;;;;;5093316;28;20027;-37
2023/03/16 07:30:46;;;;;;;3.83;2.05;;;6.80;99.90;;;;;;5099787;28;20027;-39
2023/03/16 07:33:12;;;;;;;2.65;1.70;;;6.90;99.90;;;;;;5111857;28;20024;-37
2023/03/16 07:35:38;;;;;;;2.63;1.58;;;6.90;99.90;;;;;;5097469;28;20038;-40
2023/03/16 07:38:04;;;;;;;3.47;1.85;;;6.90;99.90;;;;;;5113290;28;20036;-36
2023/03/16 07:40:30;;;;;;;4.47;2.15;;;6.90;99.90;;;;;;5103986;28;20064;-38
2023/03/16 07:42:56;;;;;;;5.13;2.42;;;7.00;99.90;;;;;;5093393;28;20028;-34
2023/03/16 07:45:22;;;;;;;4.03;2.03;;;7.00;99.90;;;;;;5101817;28;20103;-34
2023/03/16 07:47:47;;;;;;;3.70;1.52;;;7.00;99.90;;;;;;5094263;28;20020;-35
2023/03/16 07:50:15;;;;;;;3.20;2.58;;;7.00;99.90;;;;;;5093093;28;20032;-34
2023/03/16 07:52:42;;;;;;;7.82;2.80;;;7.00;99.90;;;;;;5093041;28;20050;-36
2023/03/16 07:55:09;;;;;;;6.93;2.55;;;7.00;99.90;;;;;;5093357;28;20035;-38
2023/03/16 07:57:34;;;;;;;4.32;3.13;;;7.10;99.90;;;;;;5092894;28;20043;-34
2023/03/16 08:00:03;;;;;;;4.30;2.65;;;7.10;99.90;;;;;;5093143;28;20024;-34
2023/03/16 08:02:30;;;;;;;4.80;2.25;;;7.10;99.90;;;;;;5094494;28;20020;-38
2023/03/16 08:04:55;;;;;;;10.13;4.70;;;7.10;99.90;;;;;;5094017;28;20016;-37
2023/03/16 08:07:21;;;;;;;3.25;2.10;;;7.10;99.90;;;;;;5112716;28;20080;-38
2023/03/16 08:09:47;;;;;;;7.18;2.35;;;7.10;99.90;;;;;;5113015;28;20480;-38
2023/03/16 08:12:12;;;;;;;5.35;2.70;;;7.20;99.90;;;;;;5108455;28;20035;-36
2023/03/16 08:14:38;;;;;;;3.33;2.20;;;7.20;99.90;;;;;;5093025;28;20036;-33
2023/03/16 08:17:06;;;;;;;4.20;2.13;;;7.30;99.90;;;;;;5129368;28;20032;-37
2023/03/16 08:19:32;;;;;;;4.25;2.25;;;7.40;99.90;;;;;;5123346;27;20027;-40
2023/03/16 08:22:00;;;;;;;4.15;1.98;;;7.30;99.90;;;;;;5092709;28;20039;-36
2023/03/16 08:24:26;;;;;;;7.85;3.08;;;7.30;99.90;;;;;;5092522;28;20468;-36
2023/03/16 08:26:52;;;;;;;8.80;2.55;;;7.40;99.90;;;;;;5092396;28;20085;-40
2023/03/16 08:29:18;;;;;;;5.10;2.13;;;7.40;99.90;;;;;;5093111;28;20036;-35
2023/03/16 08:31:44;;;;;;;2.65;1.90;;;7.40;99.90;;;;;;5092909;28;20553;-36
2023/03/16 08:34:10;;;;;;;3.25;2.17;;;7.40;99.90;;;;;;5092703;28;20020;-40
2023/03/16 08:36:36;;;;;;;3.63;2.45;;;7.50;99.90;;;;;;5087999;28;20040;-36
2023/03/16 08:39:05;;;;;;;5.32;2.22;;;7.60;99.90;;;;;;5101359;28;20032;-41
2023/03/16 08:41:31;;;;;;;5.07;2.40;;;7.60;99.90;;;;;;5103454;28;20032;-41
2023/03/16 08:43:58;;;;;;;3.05;2.00;;;7.60;99.90;;;;;;5096184;28;20027;-38
2023/03/16 08:46:24;;;;;;;4.15;2.28;;;7.70;99.90;;;;;;5097247;28;20028;-34
2023/03/16 08:48:51;;;;;;;3.53;1.65;;;7.70;99.90;;;;;;5111376;28;20084;-36
2023/03/16 08:51:18;;;;;;;3.55;2.13;;;7.80;99.90;;;;;;5098160;28;20484;-41
2023/03/16 08:53:44;;;;;;;8.80;2.78;;;7.90;99.90;;;;;;5108481;28;20113;-36
2023/03/16 08:56:13;;;;;;;4.15;1.80;;;7.90;99.90;;;;;;5095712;28;20156;-40
2023/03/16 08:58:40;;;;;;;4.82;2.05;;;7.90;99.90;;;;;;5108321;28;20498;-37
2023/03/16 09:01:07;;;;;;;3.53;2.05;;;8.00;99.90;;;;;;5116780;28;20020;-39
2023/03/16 09:03:34;;;;;;;6.78;2.20;;;8.10;99.90;;;;;;5097947;28;20022;-37
2023/03/16 09:06:01;;;;;;;4.72;2.45;;;8.10;99.90;;;;;;5106643;28;20019;-36
2023/03/16 09:08:28;;;;;;;5.10;2.13;;;8.10;99.90;;;;;;5104696;28;20024;-35
2023/03/16 09:11:02;;;;;;;5.05;2.58;;;8.10;99.90;;;;;;5096907;28;20027;-38
2023/03/16 09:13:29;;;;;;;2.42;1.50;;;8.20;99.90;;;;;;5104403;28;20023;-36
2023/03/16 09:15:55;;;;;;;4.57;2.38;;;8.20;99.90;;;;;;5116430;28;20391;-37
2023/03/16 09:18:22;;;;;;;1.83;1.55;;;8.30;99.90;;;;;;5104281;28;20484;-39
2023/03/16 09:20:48;;;;;;;3.40;1.75;;;8.40;99.90;;;;;;5096440;28;20017;-41
2023/03/16 09:23:14;;;;;;;7.25;2.13;;;8.50;99.90;;;;;;5110144;28;20027;-39
2023/03/16 09:25:40;;;;;;;3.58;1.88;;;8.50;99.90;;;;;;5116111;28;20019;-38
2023/03/16 09:28:05;;;;;;;2.85;1.50;;;8.70;99.90;;;;;;5114584;28;20031;-37
2023/03/16 09:30:31;;;;;;;2.85;1.65;;;8.80;99.90;;;;;;5103982;28;20032;-37
2023/03/16 09:32:58;;;;;;;6.30;2.40;;;8.90;99.90;;;;;;5112079;28;20027;-40
2023/03/16 09:35:24;;;;;;;1.98;1.73;;;9.00;99.90;;;;;;5103038;28;20013;-36
2023/03/16 09:37:51;;;;;;;11.70;1.55;;;9.20;99.90;;;;;;5101812;28;20051;-36
2023/03/16 09:40:27;;;;;;;2.35;1.73;;;9.30;99.90;;;;;;5103470;28;20472;-37
2023/03/16 09:43:39;;;;;;;4.10;1.92;;;9.40;99.90;;;;;;5104088;28;20065;-43
2023/03/16 09:46:13;;;;;;;5.18;1.92;;;9.50;99.90;;;;;;5082246;28;20036;-43
2023/03/16 09:48:39;;;;;;;7.88;1.80;;;9.70;99.90;;;;;;5093024;28;20032;-48
2023/03/16 09:51:15;;;;;;;5.25;1.88;;;9.70;99.90;;;;;;5104897;28;20035;-47
2023/03/16 09:53:40;;;;;;;3.28;1.50;;;9.80;99.90;;;;;;5110082;27;20476;-39
2023/03/16 09:56:09;;;;;;;5.78;1.70;;;9.80;99.90;;;;;;5095631;28;20043;-44
2023/03/16 09:58:35;;;;;;;3.80;1.83;;;9.80;99.90;;;;;;5094397;28;20391;-44
2023/03/16 10:01:23;;;;;;;7.03;1.55;;;9.90;99.90;;;;;;5095284;28;20046;-45
2023/03/16 10:04:02;;;;;;;3.05;1.63;;;10.10;99.90;;;;;;5095171;28;20032;-43
2023/03/16 10:06:29;;;;;;;4.13;1.73;;;10.10;99.90;;;;;;5099569;28;20027;-43
2023/03/16 10:09:21;;;;;;;4.63;1.40;;;10.20;99.90;;;;;;5107597;28;20027;-44
2023/03/16 10:11:51;;;;;;;2.38;1.42;;;10.30;99.90;;;;;;5108382;28;20035;-45
2023/03/16 10:14:43;;;;;;;1.75;1.15;;;10.40;99.90;;;;;;5097068;28;20054;-41
2023/03/16 10:17:25;;;;;;;4.70;1.42;;;10.50;99.90;;;;;;5093368;28;20549;-43
2023/03/16 10:20:00;;;;;;;2.38;1.65;;;10.60;99.90;;;;;;5093920;28;20031;-41
2023/03/16 10:22:31;;;;;;;3.60;1.73;;;10.70;99.90;;;;;;5095274;28;20523;-43
2023/03/16 10:25:23;;;;;;;4.15;1.80;;;10.90;99.90;;;;;;5111109;28;20496;-44
2023/03/16 10:27:49;;;;;;;3.97;1.70;;;11.00;99.90;;;;;;5094154;27;20039;-41
2023/03/16 10:30:21;;;;;;;4.80;1.60;;;11.10;99.90;;;;;;5115143;28;20023;-45
2023/03/16 10:32:47;;;;;;;14.80;2.50;;;11.10;99.90;;;;;;5113403;28;20395;-44
2023/03/16 10:35:34;;;;;;;4.60;1.33;;;11.10;99.90;;;;;;5099975;28;20493;-46
2023/03/16 10:38:00;;;;;;;;;;;11.20;99.90;;;;;;5093633;28;20039;-44
2023/03/16 10:40:31;;;;;;;3.85;1.73;;;11.20;99.90;;;;;;5094209;28;20420;-42
2023/03/16 10:43:04;;;;;;;2.83;1.40;;;11.40;99.90;;;;;;5101681;28;20365;-46
2023/03/16 10:45:35;;;;;;;3.50;1.70;;;11.50;99.90;;;;;;5103788;28;20357;-42
2023/03/16 10:48:19;;;;;;;6.00;1.50;;;11.60;99.90;;;;;;5105892;28;20523;-42
2023/03/16 10:50:53;;;;;;;3.30;1.65;;;11.60;99.90;;;;;;5099549;27;20033;-41
2023/03/16 10:53:30;;;;;;;5.60;1.60;;;11.50;99.90;;;;;;5101807;28;20030;-41
2023/03/16 10:56:01;;;;;;;3.60;1.70;;;11.50;99.90;;;;;;5103537;28;20047;-44
2023/03/16 10:58:32;;;;;;;8.38;1.63;;;11.50;99.90;;;;;;5114054;28;20032;-41
2023/03/16 11:00:59;;;;;;;3.75;1.25;;;11.60;99.90;;;;;;5094446;28;20381;-43
2023/03/16 11:03:26;;;;;;;3.22;1.70;;;11.80;99.90;;;;;;5097224;28;20031;-44
2023/03/16 11:06:04;;;;;;;5.20;1.85;;;11.80;99.90;;;;;;5095773;28;20058;-43
2023/03/16 11:08:37;;;;;;;3.42;1.45;;;11.90;99.90;;;;;;5109966;28;20380;-43
2023/03/16 11:11:32;;;;;;;4.53;1.77;;;12.00;99.90;;;;;;5100046;28;20024;-48
2023/03/16 11:14:09;;;;;;;2.05;1.30;;;12.10;99.90;;;;;;5087180;28;20089;-42
2023/03/16 11:17:01;;;;;;;8.23;1.88;;;12.10;99.90;;;;;;5108139;28;20031;-43
2023/03/16 11:19:38;;;;;;;1.92;1.35;;;12.20;99.90;;;;;;5108071;28;20032;-42
2023/03/16 11:22:17;;;;;;;6.97;1.60;;;12.30;99.90;;;;;;5114244;28;20050;-42
2023/03/16 11:25:08;;;;;;;4.50;1.50;;;12.40;99.90;;;;;;5113863;28;20293;-45
2023/03/16 11:27:44;;;;;;;4.50;1.92;;;12.30;99.90;;;;;;5112232;28;20045;-41
2023/03/16 11:30:20;;;;;;;3.85;1.83;;;12.50;99.90;;;;;;5113738;28;20028;-45
2023/03/16 11:32:52;;;;;;;3.22;1.00;;;12.50;99.90;;;;;;5113539;28;20035;-43
2023/03/16 11:35:29;;;;;;;7.47;1.45;;;12.70;99.90;;;;;;5113527;28;20031;-45
2023/03/16 11:38:28;;;;;;;6.85;1.50;;;12.80;99.90;;;;;;5094677;28;20043;-45
2023/03/16 11:41:09;;;;;;;3.13;1.63;;;13.00;99.90;;;;;;5093149;28;20090;-40
2023/03/16 11:43:53;;;;;;;1.58;0.90;;;13.10;99.90;;;;;;5093301;28;20095;-40
2023/03/16 11:46:26;;;;;;;6.63;1.08;;;13.20;99.90;;;;;;5091908;28;20020;-42
2023/03/16 11:49:25;;;;;;;5.80;1.38;;;13.20;99.90;;;;;;5106370;28;20490;-43
2023/03/16 11:52:22;;;;;;;1.48;1.10;;;13.20;99.90;;;;;;5113347;28;20042;-43
2023/03/16 11:55:02;;;;;;;1.13;0.77;;;13.40;99.90;;;;;;5095298;28;20401;-43
2023/03/16 11:57:46;;;;;;;4.35;1.23;;;13.40;99.90;;;;;;5094563;28;20020;-40
2023/03/16 12:00:37;;;;;;;2.53;1.05;;;13.30;99.90;;;;;;5093739;28;20436;-49
2023/03/16 12:03:35;;;;;;;6.80;1.25;;;13.40;99.90;;;;;;5111250;28;20020;-43
2023/03/16 12:06:22;;;;;;;1.42;0.93;;;13.60;99.90;;;;;;5101177;28;20055;-42
2023/03/16 12:09:19;;;;;;;0.85;0.68;;;13.70;99.90;;;;;;5109611;28;20039;-46
2023/03/16 12:11:49;;;;;;;;;;;13.70;99.90;;;;;;5106669;28;20039;-41
2023/03/16 12:14:23;;;;;;;1.48;0.85;;;13.90;99.90;;;;;;5109160;28;20382;-47
2023/03/16 12:17:10;;;;;;;6.55;1.05;;;14.00;99.90;;;;;;5109370;28;20427;-45
2023/03/16 12:19:40;;;;;;;;;;;14.10;99.90;;;;;;5113569;28;20499;-42
2023/03/16 12:22:31;;;;;;;3.88;1.30;;;14.10;99.90;;;;;;5096984;28;20362;-42
2023/03/16 12:24:56;;;;;;;1.95;1.60;;;13.90;99.90;;;;;;5099400;28;20051;-43
2023/03/16 12:27:30;;;;;;;5.53;1.48;;;13.90;99.90;;;;;;5097286;28;20024;-40
2023/03/16 12:30:44;;;;;;;4.82;1.55;;;14.00;99.90;;;;;;5098010;28;20031;-44
2023/03/16 12:33:23;;;;;;;1.48;0.80;;;14.00;99.90;;;;;;5098358;28;20040;-40
2023/03/16 12:35:59;;;;;;;6.72;1.20;;;14.00;99.90;;;;;;5103251;27;20086;-40
2023/03/16 12:38:57;;;;;;;1.52;1.15;;;14.00;99.90;;;;;;5096147;28;20044;-39
2023/03/16 12:41:53;;;;;;;2.58;0.95;;;14.00;99.90;;;;;;5095590;28;20390;-46
2023/03/16 12:44:24;;;;;;;5.00;1.05;;;14.20;99.90;;;;;;5103665;28;20081;-39
2023/03/16 12:47:14;;;;;;;1.40;1.13;;;14.30;99.90;;;;;;5095481;28;20031;-44
2023/03/16 12:49:40;;;;;;;2.03;0.63;;;14.20;99.90;;;;;;5105145;28;20040;-42
2023/03/16 12:52:11;;;;;;;3.65;1.33;;;14.30;99.90;;;;;;5103823;28;20047;-41
2023/03/16 12:54:50;;;;;;;1.85;0.90;;;14.20;99.90;;;;;;5115557;28;20027;-43
2023/03/16 12:57:17;;;;;;;4.40;1.23;;;14.20;99.90;;;;;;5116332;28;20119;-40
2023/03/16 12:59:46;;;;;;;3.50;0.85;;;14.30;99.90;;;;;;5116551;28;20016;-44
2023/03/16 13:02:18;;;;;;;1.35;0.75;;;14.20;99.90;;;;;;5116863;28;20423;-41
2023/03/16 13:04:53;;;;;;;5.60;1.15;;;14.30;99.90;;;;;;5117172;28;20069;-42
2023/03/16 13:07:22;;;;;;;1.55;0.95;;;14.20;99.90;;;;;;5116546;28;20035;-42
2023/03/16 13:09:57;;;;;;;1.40;0.95;;;14.30;99.90;;;;;;5116373;28;20019;-42
2023/03/16 13:12:31;;;;;;;2.83;0.73;;;14.30;99.90;;;;;;5116422;28;20055;-42